createdAt,value
2023-02-13T00:00:19.656Z,4.30
2023-02-13T00:04:29.213Z,4.30
2023-02-13T00:08:40.992Z,4.30
2023-02-13T00:12:50.421Z,4.30
2023-02-13T00:17:01.300Z,4.30
2023-02-13T00:21:12.284Z,4.10
2023-02-13T00:25:21.770Z,4.10
2023-02-13T00:29:30.904Z,4.10
2023-02-13T00:33:42.340Z,4.10
2023-02-13T00:37:52.095Z,4.00
2023-02-13T00:42:01.296Z,4.00
2023-02-13T00:46:10.991Z,4.00
2023-02-13T00:50:21.968Z,4.00
2023-02-13T00:54:31.172Z,4.00
2023-02-13T00:58:40.516Z,3.90
2023-02-13T01:02:49.894Z,3.90
2023-02-13T01:07:00.693Z,3.90
2023-02-13T01:11:10.123Z,3.90
2023-02-13T01:15:19.625Z,3.90
2023-02-13T01:19:29.014Z,3.90
2023-02-13T01:23:41.740Z,3.90
2023-02-13T01:27:51.072Z,3.90
2023-02-13T01:32:00.663Z,4.00
2023-02-13T01:36:12.128Z,4.00
2023-02-13T01:40:23.122Z,3.90
2023-02-13T01:44:50.348Z,3.90
2023-02-13T01:49:05.258Z,3.90
2023-02-13T01:53:18.544Z,3.90
2023-02-13T01:57:33.549Z,3.80
2023-02-13T02:01:43.445Z,3.80
2023-02-13T02:05:53.882Z,3.80
2023-02-13T02:10:07.857Z,3.70
2023-02-13T02:14:18.714Z,3.70
2023-02-13T02:18:27.988Z,3.60
2023-02-13T02:23:09.996Z,3.60
2023-02-13T02:27:54.929Z,3.50
2023-02-13T02:32:30.102Z,3.50
2023-02-13T02:36:53.300Z,3.50
2023-02-13T02:41:12.196Z,3.60
2023-02-13T02:45:30.852Z,3.60
2023-02-13T02:50:02.339Z,3.70
2023-02-13T02:54:34.454Z,3.60
2023-02-13T02:59:05.956Z,3.60
2023-02-13T03:03:37.012Z,3.60
2023-02-13T03:07:47.702Z,3.60
2023-02-13T03:12:15.259Z,3.60
2023-02-13T03:16:44.486Z,3.60
2023-02-13T03:21:25.155Z,3.60
2023-02-13T03:25:45.842Z,3.50
2023-02-13T03:30:12.046Z,3.40
2023-02-13T03:34:25.198Z,3.30
2023-02-13T03:38:42.723Z,3.30
2023-02-13T03:42:57.334Z,3.30
2023-02-13T03:47:08.589Z,3.30
2023-02-13T03:51:23.840Z,3.30
2023-02-13T03:55:54.143Z,3.20
2023-02-13T04:00:07.201Z,3.20
2023-02-13T04:04:21.112Z,3.20
2023-02-13T04:08:30.696Z,3.10
2023-02-13T04:12:43.515Z,3.10
2023-02-13T04:16:58.363Z,3.10
2023-02-13T04:21:09.135Z,3.10
2023-02-13T04:25:20.275Z,3.00
2023-02-13T04:29:29.520Z,3.10
2023-02-13T04:33:40.175Z,3.10
2023-02-13T04:37:49.449Z,3.10
2023-02-13T04:41:58.608Z,3.10
2023-02-13T04:46:08.071Z,3.10
2023-02-13T04:50:19.208Z,3.10
2023-02-13T04:54:28.386Z,3.10
2023-02-13T04:58:37.567Z,3.10
2023-02-13T05:02:46.829Z,3.10
2023-02-13T05:06:57.524Z,3.20
2023-02-13T05:11:06.939Z,3.30
2023-02-13T05:15:16.253Z,3.30
2023-02-13T05:19:25.493Z,3.30
2023-02-13T05:23:36.334Z,3.30
2023-02-13T05:27:45.485Z,3.20
2023-02-13T05:31:56.444Z,3.20
2023-02-13T05:36:06.107Z,3.10
2023-02-13T05:40:17.626Z,3.10
2023-02-13T05:44:26.725Z,3.10
2023-02-13T05:48:36.052Z,3.00
2023-02-13T05:52:45.213Z,3.10
2023-02-13T05:56:55.899Z,3.10
2023-02-13T06:01:05.921Z,3.00
2023-02-13T06:05:15.114Z,3.10
2023-02-13T06:09:24.395Z,3.00
2023-02-13T06:13:35.034Z,2.90
2023-02-13T06:17:44.331Z,2.80
2023-02-13T06:21:53.618Z,2.70
2023-02-13T06:26:06.043Z,2.70
2023-02-13T06:30:18.627Z,2.60
2023-02-13T06:34:27.800Z,2.60
2023-02-13T06:38:37.031Z,2.50
2023-02-13T06:42:47.012Z,2.50
2023-02-13T06:46:57.790Z,2.50
2023-02-13T06:51:07.340Z,2.50
2023-02-13T06:55:17.382Z,2.50
2023-02-13T06:59:26.613Z,2.40
2023-02-13T07:03:37.347Z,2.40
2023-02-13T07:07:47.127Z,2.40
2023-02-13T07:11:56.461Z,2.40
2023-02-13T07:16:06.242Z,2.40
2023-02-13T07:20:17.169Z,2.40
2023-02-13T07:24:26.512Z,2.40
2023-02-13T07:28:35.554Z,2.40
2023-02-13T07:32:44.783Z,2.40
2023-02-13T07:36:55.524Z,2.40
2023-02-13T07:41:05.858Z,2.40
2023-02-13T07:45:15.992Z,2.50
2023-02-13T07:49:25.184Z,2.50
2023-02-13T07:53:35.742Z,2.50
2023-02-13T07:57:44.870Z,2.60
2023-02-13T08:01:54.314Z,2.60
2023-02-13T08:06:05.219Z,2.70
2023-02-13T08:10:34.254Z,2.80
2023-02-13T08:14:43.559Z,3.00
2023-02-13T08:18:53.811Z,3.20
2023-02-13T08:23:07.289Z,3.30
2023-02-13T08:27:18.429Z,3.50
2023-02-13T08:31:27.797Z,3.70
2023-02-13T08:35:37.324Z,3.90
2023-02-13T08:39:46.762Z,4.10
2023-02-13T08:43:57.475Z,4.30
2023-02-13T08:48:07.829Z,4.50
2023-02-13T08:52:16.860Z,4.70
2023-02-13T08:56:26.164Z,4.90
2023-02-13T09:00:37.530Z,5.00
2023-02-13T09:04:46.638Z,5.30
2023-02-13T09:08:56.115Z,5.50
2023-02-13T09:13:05.240Z,5.70
2023-02-13T09:17:18.720Z,5.90
2023-02-13T09:21:27.944Z,6.00
2023-02-13T09:25:37.153Z,6.20
2023-02-13T09:29:46.482Z,6.40
2023-02-13T09:33:57.361Z,6.50
2023-02-13T09:38:06.498Z,6.70
2023-02-13T09:42:21.508Z,6.90
2023-02-13T09:46:36.005Z,7.10
2023-02-13T09:50:47.066Z,7.30
2023-02-13T09:54:56.816Z,7.50
2023-02-13T09:59:14.677Z,7.60
2023-02-13T10:03:31.176Z,7.90
2023-02-13T10:07:51.136Z,8.10
2023-02-13T10:12:19.076Z,8.30
2023-02-13T10:16:32.778Z,8.60
2023-02-13T10:20:47.757Z,8.80
2023-02-13T10:25:03.519Z,9.10
2023-02-13T10:29:52.777Z,9.40
2023-02-13T10:34:07.515Z,9.70
2023-02-13T10:38:20.698Z,9.80
2023-02-13T10:42:39.819Z,10.10
2023-02-13T10:46:59.519Z,10.30
2023-02-13T10:51:14.941Z,10.60
2023-02-13T10:56:09.039Z,10.70
2023-02-13T11:00:27.265Z,11.00
2023-02-13T11:04:36.613Z,11.10
2023-02-13T11:08:48.108Z,11.30
2023-02-13T11:12:57.691Z,11.50
2023-02-13T11:17:18.329Z,11.40
2023-02-13T11:21:39.110Z,11.40
2023-02-13T11:26:00.387Z,11.60
2023-02-13T11:30:35.050Z,11.40
2023-02-13T11:34:46.548Z,11.40
2023-02-13T11:39:03.869Z,11.50
2023-02-13T11:43:21.408Z,11.40
2023-02-13T11:47:47.332Z,11.30
2023-02-13T11:52:00.252Z,11.20
2023-02-13T11:56:13.516Z,11.30
2023-02-13T12:00:31.318Z,11.30
2023-02-13T12:04:40.698Z,11.40
2023-02-13T12:08:53.017Z,11.30
2023-02-13T12:13:21.219Z,11.40
2023-02-13T12:17:33.477Z,11.30
2023-02-13T12:22:08.117Z,11.30
2023-02-13T12:32:01.594Z,11.40
2023-02-13T12:36:21.753Z,11.70
2023-02-13T12:41:15.402Z,11.70
2023-02-13T12:45:35.711Z,11.60
2023-02-13T12:50:31.274Z,11.60
2023-02-13T12:54:52.733Z,11.60
2023-02-13T12:59:27.023Z,11.80
2023-02-13T13:03:54.074Z,11.80
2023-02-13T13:08:45.822Z,11.80
2023-02-13T13:13:04.274Z,11.90
2023-02-13T13:17:23.750Z,12.00
2023-02-13T13:21:41.345Z,11.90
2023-02-13T13:26:00.959Z,11.90
2023-02-13T13:30:20.414Z,11.90
2023-02-13T13:34:32.622Z,12.10
2023-02-13T13:38:57.808Z,11.90
2023-02-13T13:43:20.296Z,11.90
2023-02-13T13:47:42.872Z,11.90
2023-02-13T13:51:52.677Z,12.00
2023-02-13T13:56:09.035Z,12.10
2023-02-13T14:00:32.119Z,12.20
2023-02-13T14:04:44.256Z,12.10
2023-02-13T14:09:02.991Z,12.20
2023-02-13T14:13:12.235Z,12.30
2023-02-13T14:17:57.218Z,12.40
2023-02-13T14:22:33.515Z,12.40
2023-02-13T14:26:43.208Z,12.40
2023-02-13T14:30:56.725Z,12.60
2023-02-13T14:35:20.049Z,12.70
2023-02-13T14:39:35.569Z,12.70
2023-02-13T14:43:53.067Z,12.70
2023-02-13T14:48:09.852Z,12.80
2023-02-13T14:52:26.854Z,12.70
2023-02-13T14:56:40.673Z,12.70
2023-02-13T15:00:57.775Z,12.70
2023-02-13T15:05:10.137Z,12.80
2023-02-13T15:09:32.700Z,12.80
2023-02-13T15:13:43.059Z,12.80
2023-02-13T15:17:55.586Z,12.90
2023-02-13T15:22:08.859Z,12.80
2023-02-13T15:26:29.577Z,12.80
2023-02-13T15:30:52.738Z,12.80
2023-02-13T15:35:02.962Z,12.80
2023-02-13T15:39:19.420Z,12.80
2023-02-13T15:43:39.718Z,12.70
2023-02-13T15:48:13.530Z,12.70
2023-02-13T15:52:29.152Z,12.70
2023-02-13T15:56:50.671Z,12.70
2023-02-13T16:05:55.632Z,12.70
2023-02-13T16:10:35.630Z,12.70
2023-02-13T16:14:52.510Z,12.60
2023-02-13T16:19:04.362Z,12.50
2023-02-13T16:23:22.679Z,12.50
2023-02-13T16:27:39.350Z,12.50
2023-02-13T16:31:50.266Z,12.40
2023-02-13T16:36:10.547Z,12.40
2023-02-13T16:40:43.504Z,12.30
2023-02-13T16:44:53.014Z,12.20
2023-02-13T16:49:21.678Z,12.10
2023-02-13T16:53:34.989Z,12.00
2023-02-13T16:57:45.836Z,11.90
2023-02-13T17:02:55.341Z,11.90
2023-02-13T17:07:06.104Z,11.70
2023-02-13T17:11:22.816Z,11.50
2023-02-13T17:15:33.821Z,11.40
2023-02-13T17:19:43.436Z,11.30
2023-02-13T17:23:53.795Z,11.30
2023-02-13T17:28:15.111Z,11.20
2023-02-13T17:32:27.000Z,11.10
2023-02-13T17:36:36.675Z,11.00
2023-02-13T17:40:47.181Z,11.00
2023-02-13T17:45:00.238Z,10.90
2023-02-13T17:49:09.721Z,10.80
2023-02-13T17:53:23.676Z,10.60
2023-02-13T17:57:33.014Z,10.70
2023-02-13T18:01:44.366Z,10.70
2023-02-13T19:27:22.533Z,9.90
2023-02-13T19:56:05.656Z,10.00
2023-02-13T20:00:18.454Z,9.90
2023-02-13T20:09:14.217Z,10.10
2023-02-13T20:13:28.256Z,10.20
2023-02-13T20:17:52.832Z,10.20
2023-02-13T20:22:02.712Z,10.20
2023-02-13T20:26:16.179Z,10.10
2023-02-13T20:30:25.992Z,10.10
2023-02-13T20:34:58.237Z,9.90
2023-02-13T20:39:12.092Z,9.70
2023-02-13T20:43:23.330Z,9.30
2023-02-13T20:47:34.189Z,9.00
2023-02-13T20:51:46.589Z,8.90
2023-02-13T20:55:56.268Z,8.80
2023-02-13T21:00:13.057Z,8.70
2023-02-13T21:04:24.589Z,8.60
2023-02-13T21:08:35.812Z,8.50
2023-02-13T21:17:37.547Z,8.40
2023-02-13T21:26:38.186Z,8.60
2023-02-13T21:30:48.574Z,8.70
2023-02-13T21:35:31.512Z,9.00
2023-02-13T21:39:56.473Z,9.30
2023-02-13T21:44:08.652Z,9.70
2023-02-13T21:48:18.095Z,9.90
2023-02-13T21:52:34.422Z,10.10
2023-02-13T21:56:45.195Z,10.20
2023-02-13T22:00:57.266Z,10.30
2023-02-13T22:05:07.497Z,10.40
2023-02-13T22:09:19.680Z,10.50
2023-02-13T22:13:30.095Z,10.50
2023-02-13T22:17:41.737Z,10.40
2023-02-13T22:21:52.578Z,10.50
2023-02-13T22:26:03.580Z,10.40
2023-02-13T22:30:23.492Z,10.40
2023-02-13T22:34:36.483Z,10.50
2023-02-13T22:38:46.641Z,10.50
2023-02-13T22:42:55.980Z,10.50
2023-02-13T22:47:20.021Z,10.40
2023-02-13T22:51:33.080Z,10.40
2023-02-13T22:55:44.059Z,10.50
2023-02-13T22:59:53.509Z,10.60
2023-02-13T23:04:03.148Z,10.50
2023-02-13T23:08:14.255Z,10.50
2023-02-13T23:12:39.385Z,10.40
2023-02-13T23:17:06.123Z,10.40
2023-02-13T23:21:15.705Z,10.40
2023-02-13T23:25:26.849Z,10.30
2023-02-13T23:29:36.425Z,10.30
2023-02-13T23:33:45.726Z,10.30
2023-02-13T23:37:55.246Z,10.20
2023-02-13T23:42:06.367Z,10.20
2023-02-13T23:46:15.826Z,10.20
2023-02-13T23:50:25.242Z,10.20
2023-02-13T23:54:34.845Z,10.10
2023-02-13T23:58:45.706Z,10.00
